Terminal Aerodrome Forecast
Issued by NWS Wichita, KS

Home | Current Version | Previous Version | Text Only | Print | Product List | Glossary On
Versions: 1 2 3 4 5 6 7 8 9 10 11 12 13 14 15 16
000
FTUS43 KICT 011700
TAFICT
TAF
KICT 011738Z 0118/0218 15012KT P6SM SCT025 BKN040 BKN150
      TEMPO 0118/0121 BKN025
     FM012100 07007KT P6SM BKN050
     FM020500 03005KT P6SM VCTS BKN035CB
     FM020900 03006KT P6SM BKN020=

USA.gov is the U.S. government's official web portal to all federal, state and local government web resources and services.